SKBO/BOG METAR and TAF weather

Enter ICAO airport designator
Station Type Date Time Source
SKBO METAR 2022/11/26 10:00 UTC NOAA

SKBO 261000Z VRB02KT 9999 SCT015 SCT070 12/11 Q1026 NOSIG RMK A3032


Station Type Date Time Source
SKBO Decoded METAR 2022/11/26 10:00 UTC NOAA

Bogota / Eldorado, Colombia (SKBO) 04-43N 074-09W 2548M
Nov 26, 2022 - 05:00 AM EST / 2022.11.26 1000 UTC
Wind: Variable at 2 MPH (2 KT):0
Visibility: greater than 7 mile(s):0
Sky conditions: partly cloudy
Temperature: 53 F (12 C)
Dew Point: 51 F (11 C)
Relative Humidity: 93%
Pressure (altimeter): 30.30 in. Hg (1026 hPa)
ob: SKBO 261000Z VRB02KT 9999 SCT015 SCT070 12/11 Q1026 NOSIG RMK A3032
cycle: 10

Station Type Date Time Source
SKBO TAF 2022/11/26 06:52 UTC NOAA

TAF SKBO 260430Z 2606/2706 33004KT 9999 SCT017 BKN080
TEMPO 2609/2613 2000 BR SCT010 PROB40 2610/2612 0200 PRFG VV///
BECMG 2615/2617 26012KT BKN020
TEMPO 2620/2623 RADZ SCT015TCU
BECMG 2701/2703 VRB02KT FEW020 SCT090 TX19/2618Z TN10/2610Z

Example: see airport list